Terminal Aerodrome Forecast
Issued by NWS

Home | Current Version | Previous Version | Text Only | Print | Product List | Glossary Off
Versions: 1 2 3 4 5 6 7 8 9 10 11 12 13 14 15 16 17 18 19 20 21 22

000
FTUS43 KGRB 211722
TAFCWA
TAF
KCWA 211722Z 2118/2218 10008KT 1/4SM -RA FG OVC002
     FM212300 15004KT 1/4SM -DZ FG OVC002
     FM220300 21003KT 1/4SM -DZ FG OVC001
     FM221600 00000KT 1/2SM FG OVC002=

USA.gov is the U.S. government's official web portal to all federal, state and local government web resources and services.